Station: Singleton (Defence)  

  Atmospheric Gas Attenuation - ITU Rec 676-11   ----------------- dB/100km -----------------
Date Time Temp RH % AH g/m3 Dew Point Wind Direction Speed kph Gust kph Barometer mB Rainfall Since 9am 24GHz 47GHz 76GHz 122GHz 134GHz 241GHz
08/05 12:30 18.4 37 5.82 3.5 26 39 1013.1 0 13.5 20.6 27.6 72.0 60.0 204.4
08/05 12:20 18.8 37 5.96 3.8 20 30 1013.1 0 13.8 20.7 28.0 72.9 61.3 208.9
08/05 12:10 18.2 37 5.75 3.2 28 32 1013.1 0 13.4 20.5 27.5 71.5 59.4 202.2
08/05 12:00 18.2 38 5.91 3.7 20 30 1013.1 0 13.7 20.7 28.0 73.0 61.2 208.5
08/05 11:50 17.7 38 5.73 3.5 19 24 1013.1 0 13.3 20.6 27.6 71.8 59.5 202.6
08/05 11:40 17.1 40 5.82 3.4 26 30 1013.1 0 13.6 20.9 28.1 73.2 61.0 207.7
08/05 11:30 16.7 41 5.83 3.4 22 30 1013.1 0 13.6 21.0 28.2 73.6 61.4 209.1
08/05 11:20 16.5 41 5.76 3.2 20 24 1013.1 0 13.5 20.9 28.1 73.1 60.8 206.8
08/05 11:10 16.1 42 5.76 3.2 26 30 1013.1 0 13.5 21.0 28.2 73.5 61.1 207.8
08/05 11:00 16 43 5.86 3.4 17 28 1013.1 0 13.7 21.2 28.6 74.5 62.3 212.1
08/05 10:50 15.2 44 5.71 3 15 24 1013.1 0 13.4 21.1 28.3 73.9 61.2 208.1
08/05 10:40 15 44 5.64 2.8 19 22 1013.1 0 13.3 21.1 28.2 73.4 60.5 205.8
08/05 10:30 15.1 44 5.68 3 19 28 1013.1 0 13.3 21.1 28.3 73.7 60.9 207.1
08/05 10:20 14.7 45 5.67 2.9 20 24 1013.1 0 13.3 21.2 28.4 73.9 61.1 207.8
08/05 10:10 14.7 47 5.92 3.5 11 19 1013.1 0 13.9 21.6 29.3 76.3 64.0 218.0
08/05 10:00 14 47 5.67 2.9 20 28 1013.1 0 13.3 21.4 28.6 74.6 61.6 209.5
08/05 09:50 12.9 50 5.64 2.7 24 28 1013.1 0 13.3 21.6 28.9 75.3 62.1 211.2
08/05 09:40 13.2 50 5.74 3 13 17 1013.1 0 13.5 21.6 29.1 76.0 63.1 214.6
08/05 09:30 12.5 51 5.61 2.7 17 24 1013.1 0 13.3 21.6 28.9 75.4 62.1 210.9
08/05 09:20 12.3 52 5.65 2.7 17 19 1013.1 0 13.4 21.7 29.1 76.0 62.7 213.2
08/05 09:10 11.6 53 5.51 2.3 19 20 1013.1 0 13.1 21.7 28.9 75.3 61.6 209.1
08/05 09:00 11.4 54 5.54 2.4 15 22 1013.1 0 13.2 21.8 29.1 75.7 62.1 210.9
08/05 08:50 11 55 5.51 2.3 13 15 1013.1 0 13.1 21.8 29.1 75.8 62.0 210.6
08/05 08:40 10.6 56 5.47 2.2 15 19 1013.1 0 13.0 21.9 29.1 75.8 61.9 210.0
08/05 08:30 10.5 56 5.43 2.1 13 26 1013.1 0 13.0 21.8 29.0 75.5 61.4 208.5
08/05 08:20 10 58 5.45 2.1 13 15 1013.1 0 13.0 22.0 29.2 76.2 62.1 210.7
08/05 08:10 9.6 59 5.41 2 15 17 1013.1 0 12.9 22.0 29.2 76.2 61.9 210.0
08/05 08:00 9.2 60 5.36 1.9 9 17 1013.1 0 12.9 22.0 29.2 76.0 61.6 208.9
08/05 07:50 8.8 62 5.4 1.9 9 11 1013.1 0 13.0 22.2 29.5 76.8 62.4 211.7
08/05 07:40 8.4 62 5.26 1.5 9 13 1013.1 0 12.7 22.1 29.1 75.8 61.0 206.6
08/05 07:30 8.1 64 5.33 1.7 9 11 1013.1 0 12.8 22.3 29.5 76.8 62.1 210.4
08/05 07:20 7.7 65 5.27 1.5 9 11 1013.1 0 12.7 22.3 29.4 76.6 61.7 208.8
08/05 07:10 7.2 65 5.1 1.2 11 15 1013.1 0 12.4 22.1 28.9 75.3 59.9 202.6
08/05 07:00 6.8 67 5.13 1.1 11 15 1013.1 0 12.4 22.3 29.2 76.0 60.6 205.0
08/05 06:50 6.6 67 5.06 0.9 9 11 1013.1 0 12.3 22.2 29.0 75.5 59.9 202.4
08/05 06:40 6.6 67 5.06 0.9 11 15 1013.1 0 12.3 22.2 29.0 75.5 59.9 202.4
08/05 06:30 6.5 67 5.03 0.8 13 19 1013.1 0 12.2 22.2 28.9 75.3 59.6 201.3
08/05 06:20 6.6 67 5.06 0.9 11 13 1013.1 0 12.3 22.2 29.0 75.5 59.9 202.4
08/05 06:10 6.7 66 5.02 0.8 11 15 1013.1 0 12.2 22.1 28.8 75.0 59.3 200.4
08/05 06:00 6.6 66 4.99 0.7 13 17 1013.1 0 12.2 22.1 28.7 74.8 59.0 199.3
08/05 05:50 6.5 67 5.03 0.8 17 20 1013.1 0 12.2 22.2 28.9 75.3 59.6 201.3
08/05 05:40 6.1 67 4.9 0.4 9 9 1013.1 0 12.0 22.1 28.6 74.3 58.2 196.5
08/05 05:30 6.5 66 4.95 0.6 9 15 1013.1 0 12.1 22.1 28.6 74.5 58.5 197.8
08/05 05:20 6.4 66 4.92 0.5 9 11 1013.1 0 12.0 22.0 28.5 74.2 58.2 196.7
08/05 05:10 6.3 66 4.89 0.4 9 11 1013.1 0 11.9 22.0 28.4 74.0 57.9 195.6
08/05 05:00 6.5 65 4.88 0.4 9 15 1013.1 0 11.9 22.0 28.3 73.7 57.7 194.7
08/05 04:50 6.4 65 4.85 0.3 11 13 1013.1 0 11.9 21.9 28.3 73.5 57.4 193.6
08/05 04:40 6.7 63 4.79 0.3 11 13 1013.1 0 11.7 21.8 27.9 72.7 56.4 190.2
08/05 04:30 6.7 63 4.79 0.2 7 11 1013.1 0 11.7 21.8 27.9 72.7 56.4 190.2
08/05 04:20 6.9 62 4.78 0.1 9 11 1013.1 0 11.7 21.7 27.8 72.4 56.1 189.3
08/05 04:10 6.7 62 4.71 -0.1 11 11 1013.1 0 11.6 21.6 27.6 71.8 55.4 186.7
08/05 04:00 6.7 62 4.71 -0.1 11 13 1013.1 0 11.6 21.6 27.6 71.8 55.4 186.7
08/05 03:50 6.8 61 4.67 -0.2 11 11 1013.1 0 11.5 21.6 27.4 71.4 54.8 184.8
08/05 03:40 7 60 4.65 -0.3 11 11 1013.1 0 11.4 21.5 27.3 71.0 54.4 183.4
08/05 03:30 7.2 60 4.71 0 9 13 1013.1 0 11.5 21.5 27.5 71.4 55.0 185.6
08/05 03:20 7 60 4.65 -0.3 7 7 1013.1 0 11.4 21.5 27.3 71.0 54.4 183.4
08/05 03:10 6.8 60 4.59 -0.4 11 13 1013.1 0 11.3 21.4 27.1 70.6 53.8 181.3
08/05 03:00 7.3 58 4.58 -0.4 9 13 1013.1 0 11.3 21.3 26.9 70.0 53.4 179.7
08/05 02:50 7.2 58 4.56 -0.5 9 11 1013.1 0 11.2 21.3 26.9 69.9 53.2 179.1
08/05 02:40 7.6 56 4.51 -0.6 7 7 1013.1 0 11.1 21.1 26.6 69.1 52.3 176.1
08/05 02:30 7.7 55 4.46 -0.8 6 9 1013.1 0 11.0 21.0 26.4 68.5 51.7 173.7
08/05 02:20 7.8 55 4.49 -0.7 6 6 1013.1 0 11.0 21.1 26.4 68.7 51.9 174.8
08/05 02:10 7.8 53 4.33 -1 4 6 1013.1 0 10.7 20.8 25.9 67.1 50.0 168.0
08/05 02:00 7.9 53 4.36 -1.1 6 6 1013.1 0 10.8 20.8 25.9 67.3 50.3 169.0
08/05 01:50 7.8 53 4.33 -1.2 6 6 1013.1 0 10.7 20.8 25.9 67.1 50.0 168.0
08/05 01:40 8.2 52 4.36 -1.1 7 7 1013.1 0 10.8 20.8 25.8 67.1 50.1 168.4
08/05 01:30 8 53 4.38 -1 4 6 1013.1 0 10.8 20.9 26.0 67.4 50.5 169.7
08/05 01:20 8 52 4.3 -1.3 4 6 1013.1 0 10.6 20.7 25.7 66.7 49.5 166.3
08/05 01:10 8.1 52 4.33 -1.2 6 6 1013.1 0 10.7 20.8 25.8 66.9 49.8 167.3
08/05 01:00 8.1 51 4.25 -1.4 4 7 1013.1 0 10.5 20.6 25.5 66.1 48.9 164.0
08/05 00:50 8 52 4.3 -1.3 2 4 1013.1 0 10.6 20.7 25.7 66.7 49.5 166.3
08/05 00:40 8.4 51 4.33 -1.2 7 9 1013.1 0 10.7 20.7 25.7 66.6 49.6 166.7
08/05 00:20 8.9 48 4.21 -1.5 15 17 1013.1 0 10.4 20.4 25.1 65.1 47.9 160.7
08/05 00:10 8.8 49 4.27 -1.3 13 17 1013.1 0 10.5 20.5 25.3 65.7 48.7 163.4
08/05 00:00 8.5 50 4.27 -1.3 13 19 1013.1 0 10.6 20.6 25.4 66.0 48.9 164.0
07/05 23:50 8.6 50 4.3 -1.3 13 15 1013.1 0 10.6 20.6 25.5 66.2 49.2 165.1
07/05 23:40 8.7 49 4.24 -1.4 11 15 1013.1 0 10.5 20.5 25.3 65.5 48.4 162.4
07/05 23:30 8.7 49 4.24 -1.4 13 17 1013.1 0 10.5 20.5 25.3 65.5 48.4 162.4
07/05 23:20 8.9 48 4.21 -1.5 15 19 1013.1 0 10.4 20.4 25.1 65.1 47.9 160.7
07/05 23:10 9 48 4.23 -1.4 11 13 1013.1 0 10.5 20.4 25.1 65.2 48.1 161.3
07/05 23:00 9.4 46 4.16 -1.6 13 19 1013.1 0 10.3 20.2 24.8 64.2 47.0 157.7
07/05 22:50 9.2 46 4.11 -1.8 13 15 1013.1 0 10.2 20.2 24.6 63.9 46.6 156.0
07/05 22:40 9 47 4.14 -1.7 11 13 1013.1 0 10.3 20.3 24.8 64.3 47.0 157.6
07/05 22:30 9.3 46 4.14 -1.7 13 19 1013.1 0 10.3 20.2 24.7 64.1 46.9 157.0
07/05 22:20 9.1 46 4.08 -1.9 9 11 1013.1 0 10.1 20.2 24.6 63.7 46.3 154.9
07/05 22:10 9.1 46 4.08 -1.9 9 9 1013.1 0 10.1 20.2 24.6 63.7 46.3 154.9
07/05 22:00 9.5 45 4.1 -1.8 11 13 1013.1 0 10.2 20.1 24.5 63.5 46.3 155.0
07/05 21:50 9.6 44 4.03 -2.1 11 11 1013.1 0 10.0 20.0 24.2 62.8 45.4 152.0
07/05 21:40 9.8 43 3.99 -2.2 13 15 1013.1 0 9.9 19.9 24.0 62.3 44.8 150.0
07/05 21:30 10 42 3.95 -2.3 15 24 1013.1 0 9.8 19.8 23.8 61.8 44.2 148.0
07/05 21:20 10.2 42 4 -2.2 15 19 1013.1 0 9.9 19.8 24.0 62.1 44.7 149.6
07/05 21:10 10.4 41 3.95 -2.3 17 19 1013.1 0 9.8 19.7 23.7 61.5 44.0 147.2
07/05 21:00 10.3 41 3.93 -2.4 13 20 1013.1 0 9.8 19.7 23.7 61.3 43.9 146.6
07/05 20:50 10.1 41 3.88 -2.6 11 13 1013.1 0 9.7 19.7 23.6 61.0 43.4 145.0
07/05 20:40 10.2 40 3.81 -2.8 15 19 1013.1 0 9.5 19.6 23.3 60.3 42.5 142.0
07/05 20:30 9.9 41 3.83 -2.7 11 15 1013.1 0 9.6 19.6 23.5 60.7 42.9 143.3
07/05 20:20 10.2 39 3.71 -3.2 11 13 1013.1 0 9.3 19.4 23.0 59.4 41.4 138.0
07/05 20:10 10.6 38 3.71 -3.1 6 6 1013.1 0 9.3 19.3 22.8 59.1 41.2 137.3
07/05 20:00 10.3 39 3.74 -3 7 9 1013.1 0 9.4 19.4 23.0 59.6 41.7 139.0
07/05 19:50 10.6 38 3.71 -3.1 7 9 1013.1 0 9.3 19.3 22.8 59.1 41.2 137.3

Last Refresh: 08-May-2026 12:07:38

Bureau of Meteorology